This is the latest recevied weather packets stored in our database for station/object KJ4HF. If no packets are shown the sender has not sent any weather packets the latest 10 day(s).
| Time | Temp. | Humidity | Pressure | Rain* | Wind** | Luminosity | Snow |
|---|---|---|---|---|---|---|---|
| 1777590643 | 19.44° C | 44% | 1010 hPa | 0 mm | - | 51 W/m² | - |
| 1777589444 | 20.56° C | 43% | 1009.7 hPa | 0 mm | - | 72 W/m² | - |
| 1777588543 | 21.11° C | 43% | 1009.7 hPa | 0 mm | - | 67 W/m² | - |
| 1777587943 | 21.67° C | 41% | 1009.4 hPa | 0 mm | - | 79 W/m² | - |
| 1777586743 | 21.11° C | 47% | 1009.4 hPa | 0 mm | - | 172 W/m² | - |
| 1777586458 | 21.67° C | 46% | 1009.4 hPa | 0 mm | - | 127 W/m² | - |
| 1777585246 | 22.22° C | 46% | 1009.2 hPa | 0 mm | - | 446 W/m² | - |
| 1777583793 | 23.33° C | 39% | 1009.2 hPa | 0 mm | - | 534 W/m² | - |
| 1777583144 | 23.89° C | 39% | 1008.9 hPa | 0 mm | - | 664 W/m² | - |
| 1777581646 | 23.33° C | 40% | 1009.1 hPa | 0 mm | - | 214 W/m² | - |
| 1777579540 | 23.33° C | 40% | 1008.9 hPa | 0 mm | - | 659 W/m² | - |
| 1777579258 | 23.33° C | 44% | 1008.9 hPa | 0 mm | - | 262 W/m² | - |
| 1777578643 | 23.33° C | 45% | 1009.4 hPa | 0 mm | - | 165 W/m² | - |
| 1777577745 | 23.89° C | 44% | 1009.4 hPa | 0 mm | - | 946 W/m² | - |
| 1777576555 | 22.78° C | 49% | 1009.8 hPa | 0 mm | - | 960 W/m² | - |
| 1777571156 | 21.11° C | 53% | 1010.2 hPa | 0 mm | - | 306 W/m² | - |
| 1777569347 | 22.22° C | 50% | 1010.2 hPa | 0 mm | - | 1074 W/m² | - |
| 1777568141 | 22.22° C | 50% | 1010.2 hPa | 0 mm | - | 1016 W/m² | - |
| 1777565442 | 20.56° C | 53% | 1010.7 hPa | 0 mm | - | 939 W/m² | - |
| 1777564543 | 20.56° C | 55% | 1010.7 hPa | 0 mm | - | 919 W/m² | - |
| 1777564243 | 20.56° C | 51% | 1010.8 hPa | 0 mm | - | 912 W/m² | - |
| 1777563642 | 20° C | 58% | 1010.9 hPa | 0 mm | - | 893 W/m² | - |
| 1777562158 | 19.44° C | 62% | 1011.3 hPa | 0 mm | - | 844 W/m² | - |
| 1777561844 | 19.44° C | 61% | 1011.3 hPa | 0 mm | - | 835 W/m² | - |
| 1777561250 | 18.89° C | 69% | 1011.3 hPa | 0 mm | - | 812 W/m² | - |
* Rain latest hour (hover to see other rain measurements)
** Current wind speed in m/s (hover to see current wind gust speed)